createdAt,value
2023-03-09T00:03:23.977Z,59.30
2023-03-09T00:08:48.977Z,59.40
2023-03-09T00:14:11.976Z,60.00
2023-03-09T00:19:34.990Z,59.80
2023-03-09T00:25:03.016Z,60.20
2023-03-09T00:30:26.970Z,60.00
2023-03-09T00:35:50.051Z,59.80
2023-03-09T00:41:14.983Z,60.00
2023-03-09T00:46:39.045Z,59.90
2023-03-09T00:52:04.003Z,60.00
2023-03-09T00:57:29.019Z,59.80
2023-03-09T01:02:52.978Z,59.90
2023-03-09T01:08:16.024Z,59.70
2023-03-09T01:13:41.016Z,60.00
2023-03-09T01:19:04.014Z,59.60
2023-03-09T01:24:27.004Z,59.80
2023-03-09T01:29:52.051Z,59.80
2023-03-09T01:35:15.011Z,60.00
2023-03-09T01:40:38.015Z,59.80
2023-03-09T01:46:41.056Z,59.90
2023-03-09T01:52:11.044Z,60.20
2023-03-09T01:57:39.066Z,60.20
2023-03-09T02:03:10.069Z,60.70
2023-03-09T02:08:37.025Z,60.20
2023-03-09T02:14:02.027Z,60.00
2023-03-09T02:19:34.038Z,60.50
2023-03-09T02:25:13.034Z,61.20
2023-03-09T02:30:47.480Z,62.80
2023-03-09T02:36:11.087Z,63.50
2023-03-09T02:41:37.078Z,62.70
2023-03-09T02:47:04.044Z,61.80
2023-03-09T02:52:29.086Z,61.70
2023-03-09T02:57:53.071Z,61.00
2023-03-09T03:03:19.072Z,62.10
2023-03-09T03:08:43.071Z,62.00
2023-03-09T03:14:07.082Z,63.10
2023-03-09T03:19:32.046Z,63.00
2023-03-09T03:24:56.075Z,63.30
2023-03-09T03:30:20.112Z,63.20
2023-03-09T03:35:47.120Z,63.50
2023-03-09T03:41:11.092Z,62.50
2023-03-09T03:46:38.127Z,62.60
2023-03-09T03:52:03.090Z,62.40
2023-03-09T03:57:41.102Z,63.20
2023-03-09T04:03:06.090Z,63.30
2023-03-09T04:08:40.100Z,63.40
2023-03-09T04:14:03.115Z,63.30
2023-03-09T04:19:26.123Z,63.50
2023-03-09T04:24:51.122Z,63.30
2023-03-09T04:30:35.430Z,63.70
2023-03-09T04:36:48.754Z,63.30
2023-03-09T04:43:06.342Z,63.80
2023-03-09T04:49:19.172Z,63.80
2023-03-09T04:55:18.961Z,64.10
2023-03-09T05:01:40.931Z,63.90
2023-03-09T05:07:48.016Z,63.80
2023-03-09T05:20:22.936Z,64.10
2023-03-09T07:20:11.218Z,65.00
2023-03-09T07:25:35.268Z,65.10
2023-03-09T07:30:58.229Z,65.20
2023-03-09T07:36:23.228Z,65.20
2023-03-09T07:41:46.298Z,65.50
2023-03-09T07:47:11.242Z,65.70
2023-03-09T07:52:39.240Z,66.00
2023-03-09T07:58:02.265Z,66.10
2023-03-09T08:03:25.303Z,66.00
2023-03-09T08:08:50.246Z,66.10
2023-03-09T08:14:13.271Z,65.90
2023-03-09T08:19:36.225Z,65.90
2023-03-09T08:25:07.240Z,65.90
2023-03-09T08:30:30.246Z,65.80
2023-03-09T08:35:53.367Z,65.80
2023-03-09T08:41:18.294Z,65.90
2023-03-09T08:46:41.258Z,65.80
2023-03-09T08:52:05.645Z,65.80
2023-03-09T08:57:30.262Z,65.70
2023-03-09T09:02:53.369Z,65.70
2023-03-09T09:08:16.287Z,65.80
2023-03-09T09:13:41.302Z,65.60
2023-03-09T09:19:04.307Z,65.50
2023-03-09T09:24:28.283Z,65.40
2023-03-09T09:29:53.277Z,65.50
2023-03-09T09:35:18.289Z,65.50
2023-03-09T09:40:42.328Z,65.60
2023-03-09T09:46:12.085Z,65.60
2023-03-09T09:52:01.311Z,65.90
2023-03-09T09:57:29.338Z,66.30
2023-03-09T10:03:06.407Z,66.40
2023-03-09T10:08:34.423Z,66.60
2023-03-09T10:14:01.357Z,66.60
2023-03-09T10:19:28.302Z,66.80
2023-03-09T10:24:55.434Z,66.90
2023-03-09T10:30:27.416Z,66.90
2023-03-09T10:35:57.358Z,66.70
2023-03-09T10:41:25.323Z,66.60
2023-03-09T10:47:09.321Z,66.60
2023-03-09T10:52:35.392Z,66.80
2023-03-09T10:58:10.355Z,66.70
2023-03-09T11:03:39.345Z,66.70
2023-03-09T11:09:19.356Z,66.90
2023-03-09T11:14:49.365Z,66.90
2023-03-09T11:20:39.329Z,67.00
2023-03-09T11:26:16.476Z,67.10
2023-03-09T11:31:52.445Z,67.10
2023-03-09T11:37:21.345Z,67.00
2023-03-09T11:42:53.522Z,66.90
2023-03-09T11:48:28.473Z,67.00
2023-03-09T11:53:55.356Z,66.80
2023-03-09T11:59:25.591Z,66.60
2023-03-09T12:04:48.365Z,66.50
2023-03-09T12:10:18.458Z,66.40
2023-03-09T12:15:50.419Z,66.30
2023-03-09T12:21:15.382Z,66.10
2023-03-09T12:26:44.376Z,66.30
2023-03-09T12:32:47.436Z,66.20
2023-03-09T12:38:28.517Z,65.90
2023-03-09T12:43:56.392Z,65.70
2023-03-09T12:49:28.411Z,65.70
2023-03-09T12:55:01.399Z,65.70
2023-03-09T13:00:41.431Z,65.80
2023-03-09T13:06:06.418Z,65.60
2023-03-09T13:11:48.421Z,65.60
2023-03-09T13:17:34.445Z,65.70
2023-03-09T13:23:07.533Z,65.80
2023-03-09T13:28:46.438Z,65.70
2023-03-09T13:34:10.428Z,66.00
2023-03-09T13:39:33.461Z,66.10
2023-03-09T13:45:02.425Z,66.30
2023-03-09T13:50:26.432Z,66.20
2023-03-09T13:55:49.460Z,66.20
2023-03-09T14:01:14.521Z,66.10
2023-03-09T14:07:15.577Z,66.10
2023-03-09T14:12:38.472Z,65.90
2023-03-09T14:18:04.486Z,65.50
2023-03-09T14:23:43.459Z,65.40
2023-03-09T14:29:19.469Z,65.70
2023-03-09T14:34:44.465Z,64.60
2023-03-09T14:40:08.460Z,63.60
2023-03-09T14:45:33.552Z,63.50
2023-03-09T14:50:58.521Z,63.70
2023-03-09T14:56:21.477Z,63.40
2023-03-09T15:01:58.342Z,63.60
2023-03-09T15:07:25.477Z,63.30
2023-03-09T15:12:48.504Z,63.30
2023-03-09T15:18:12.507Z,63.30
2023-03-09T15:23:37.520Z,63.30
2023-03-09T15:29:00.507Z,63.20
2023-03-09T15:34:23.497Z,63.10
2023-03-09T15:39:48.513Z,63.10
2023-03-09T15:45:11.531Z,62.90
2023-03-09T15:50:35.751Z,62.90
2023-03-09T15:56:00.575Z,62.80
2023-03-09T16:01:29.560Z,62.60
2023-03-09T16:06:53.522Z,62.70
2023-03-09T16:12:18.643Z,62.80
2023-03-09T16:17:41.571Z,62.50
2023-03-09T16:23:04.602Z,62.40
2023-03-09T16:28:29.552Z,62.10
2023-03-09T16:33:52.628Z,62.10
2023-03-09T16:39:22.543Z,61.80
2023-03-09T16:44:54.568Z,61.80
2023-03-09T16:50:20.547Z,61.50
2023-03-09T16:55:43.641Z,61.70
2023-03-09T17:01:08.641Z,61.60
2023-03-09T17:06:32.565Z,61.70
2023-03-09T17:11:55.546Z,61.50
2023-03-09T17:17:20.556Z,61.50
2023-03-09T17:22:43.611Z,61.30
2023-03-09T17:28:07.571Z,61.30
2023-03-09T17:33:32.584Z,61.40
2023-03-09T17:39:03.663Z,61.30
2023-03-09T17:44:36.814Z,61.20
2023-03-09T17:50:02.592Z,61.10
2023-03-09T17:55:25.579Z,61.00
2023-03-09T18:00:48.590Z,61.10
2023-03-09T18:06:16.696Z,61.00
2023-03-09T18:11:44.584Z,61.00
2023-03-09T18:17:07.604Z,61.10
2023-03-09T18:22:32.667Z,61.20
2023-03-09T18:27:55.918Z,61.20
2023-03-09T18:33:18.605Z,61.30
2023-03-09T18:38:49.645Z,61.40
2023-03-09T18:44:13.666Z,61.50
2023-03-09T18:49:39.626Z,61.50
2023-03-09T18:55:04.615Z,61.50
2023-03-09T19:00:32.621Z,61.50
2023-03-09T19:06:04.973Z,61.50
2023-03-09T19:11:31.636Z,61.40
2023-03-09T19:16:47.661Z,61.40
2023-03-09T19:22:10.632Z,61.40
2023-03-09T19:27:35.618Z,61.40
2023-03-09T19:32:58.794Z,61.40
2023-03-09T19:38:21.647Z,61.30
2023-03-09T19:43:46.668Z,61.30
2023-03-09T19:49:10.654Z,61.20
2023-03-09T19:54:33.642Z,61.20
2023-03-09T19:59:58.682Z,61.20
2023-03-09T20:05:21.685Z,61.10
2023-03-09T20:10:44.668Z,61.10
2023-03-09T20:16:09.702Z,61.10
2023-03-09T20:21:33.657Z,61.10
2023-03-09T20:26:58.794Z,61.10
2023-03-09T20:32:25.804Z,60.80
2023-03-09T20:37:48.670Z,60.80
2023-03-09T20:43:11.688Z,60.70
2023-03-09T20:48:36.692Z,60.60
2023-03-09T20:53:59.739Z,60.50
2023-03-09T20:59:23.681Z,60.30
2023-03-09T21:04:51.703Z,61.00
2023-03-09T21:10:15.701Z,60.00
2023-03-09T21:15:38.773Z,59.90
2023-03-09T21:21:06.713Z,59.70
2023-03-09T21:26:32.707Z,59.60
2023-03-09T21:31:55.727Z,59.60
2023-03-09T21:37:20.747Z,59.60
2023-03-09T21:42:44.739Z,59.60
2023-03-09T21:48:07.735Z,59.70
2023-03-09T21:53:32.719Z,59.50
2023-03-09T21:58:55.728Z,59.30
2023-03-09T22:04:18.730Z,59.20
2023-03-09T22:09:43.729Z,59.10
2023-03-09T22:15:06.736Z,59.20
2023-03-09T22:20:31.752Z,59.00
2023-03-09T22:25:56.723Z,59.00
2023-03-09T22:31:20.826Z,58.90
2023-03-09T22:36:43.762Z,58.90
2023-03-09T22:42:08.777Z,59.00
2023-03-09T22:47:31.788Z,59.00
2023-03-09T22:52:48.775Z,59.10
2023-03-09T22:58:13.765Z,59.00
2023-03-09T23:03:36.819Z,59.00
2023-03-09T23:08:59.767Z,59.00
2023-03-09T23:14:27.766Z,59.10
2023-03-09T23:19:50.795Z,59.10
2023-03-09T23:25:14.791Z,59.20
2023-03-09T23:30:39.788Z,58.90
2023-03-09T23:36:03.912Z,58.80
2023-03-09T23:41:28.791Z,58.90
2023-03-09T23:47:00.826Z,58.80
2023-03-09T23:52:23.812Z,58.90
2023-03-09T23:57:46.837Z,58.80
